Time;durP1;ratioP1;P1;durP2;ratioP2;P2;SDS_P1;SDS_P2;PMS_P1;PMS_P2;Temp;Humidity;BMP_temperature;BMP_pressure;BME280_temperature;BME280_humidity;BME280_pressure;Samples;Min_cycle;Max_cycle;Signal;HPM_P1;HPM_P2
2020/12/27 00:00:08;;;;;;;;;;;21.70;54.40;;;;;;5059600;28;1337;-72
2020/12/27 00:02:33;;;;;;;;;;;21.70;54.40;;;;;;5068955;28;1358;-71
2020/12/27 00:04:59;;;;;;;;;;;21.70;54.50;;;;;;5051558;28;1377;-72
2020/12/27 00:07:24;;;;;;;;;;;21.70;54.50;;;;;;5062349;28;1377;-72
2020/12/27 00:09:49;;;;;;;;;;;21.60;54.50;;;;;;5071707;28;1914;-71
2020/12/27 00:12:15;;;;;;;;;;;21.70;54.60;;;;;;5073049;28;1667;-72
2020/12/27 00:14:40;;;;;;;;;;;21.70;54.60;;;;;;5069698;28;1316;-72
2020/12/27 00:17:09;;;;;;;;;;;21.60;54.60;;;;;;5072793;28;1365;-72
2020/12/27 00:19:34;;;;;;;;;;;21.60;54.60;;;;;;5071622;28;1103;-72
2020/12/27 00:22:00;;;;;;;;;;;21.60;54.70;;;;;;5072835;28;1098;-72
2020/12/27 00:24:25;;;;;;;;;;;21.60;54.70;;;;;;5090663;28;1238;-72
2020/12/27 00:26:51;;;;;;;;;;;21.60;54.70;;;;;;5074900;28;1370;-72
2020/12/27 00:29:17;;;;;;;;;;;21.60;54.70;;;;;;5092779;28;1901;-73
2020/12/27 00:31:42;;;;;;;;;;;21.60;54.70;;;;;;5074963;28;1518;-73
2020/12/27 00:34:08;;;;;;;;;;;21.60;54.80;;;;;;5076633;28;1366;-72
2020/12/27 00:36:33;;;;;;;;;;;21.50;54.70;;;;;;5078841;28;1274;-72
2020/12/27 00:38:59;;;;;;;;;;;21.50;54.70;;;;;;5078972;28;1343;-72
2020/12/27 00:41:24;;;;;;;;;;;21.50;54.80;;;;;;5097157;28;1193;-72
2020/12/27 00:43:50;;;;;;;;;;;21.50;54.80;;;;;;5078698;28;1331;-71
2020/12/27 00:46:16;;;;;;;;;;;21.50;54.80;;;;;;5078852;28;1356;-71
2020/12/27 00:48:42;;;;;;;;;;;21.50;54.90;;;;;;5078723;28;1976;-71
2020/12/27 00:51:07;;;;;;;;;;;21.50;54.90;;;;;;5078507;28;1119;-71
2020/12/27 00:53:32;;;;;;;;;;;21.50;54.90;;;;;;5096622;28;1362;-73
2020/12/27 00:55:58;;;;;;;;;;;21.50;54.90;;;;;;5096689;28;1142;-72
2020/12/27 00:58:23;;;;;;;;;;;21.40;54.90;;;;;;5091002;28;1138;-73
2020/12/27 01:00:49;;;;;;;;;;;21.40;55.20;;;;;;5068604;28;1362;-72
2020/12/27 01:03:14;;;;;;;;;;;21.50;54.90;;;;;;5078514;28;1360;-71
2020/12/27 01:05:41;;;;;;;;;;;21.40;54.90;;;;;;5061472;28;1300;-71
2020/12/27 01:08:06;;;;;;;;;;;21.40;54.90;;;;;;5078188;28;1909;-72
2020/12/27 01:10:32;;;;;;;;;;;21.40;55.00;;;;;;5096520;28;1622;-72
2020/12/27 01:12:57;;;;;;;;;;;21.40;55.00;;;;;;5078309;28;1323;-71
2020/12/27 01:15:23;;;;;;;;;;;21.40;55.00;;;;;;5096323;28;1293;-72
2020/12/27 01:17:48;;;;;;;;;;;21.40;55.00;;;;;;5096268;28;1394;-71
2020/12/27 01:20:13;;;;;;;;;;;21.40;55.10;;;;;;5078030;28;1235;-72
2020/12/27 01:22:39;;;;;;;;;;;21.40;55.10;;;;;;5096033;28;1372;-72
2020/12/27 01:25:04;;;;;;;;;;;21.40;55.10;;;;;;5078111;28;1390;-72
2020/12/27 01:27:30;;;;;;;;;;;21.40;55.10;;;;;;5096071;28;1357;-72
2020/12/27 01:29:55;;;;;;;;;;;21.40;55.10;;;;;;5078052;28;1960;-73
2020/12/27 01:32:21;;;;;;;;;;;21.40;55.10;;;;;;5096525;28;1370;-72
2020/12/27 01:34:46;;;;;;;;;;;21.30;55.10;;;;;;5095752;28;1262;-72
2020/12/27 01:37:12;;;;;;;;;;;21.30;55.10;;;;;;5077795;28;1437;-72
2020/12/27 01:39:37;;;;;;;;;;;21.30;55.20;;;;;;5077919;28;1087;-72
2020/12/27 01:42:03;;;;;;;;;;;21.30;55.20;;;;;;5078090;28;1317;-72
2020/12/27 01:44:28;;;;;;;;;;;21.30;55.20;;;;;;5077284;28;1457;-72
2020/12/27 01:46:53;;;;;;;;;;;21.30;55.20;;;;;;5095033;28;1091;-72
2020/12/27 01:49:19;;;;;;;;;;;21.30;55.20;;;;;;5095640;28;1898;-73
2020/12/27 01:51:44;;;;;;;;;;;21.30;55.20;;;;;;5077609;28;1296;-73
2020/12/27 01:54:10;;;;;;;;;;;21.30;55.20;;;;;;5077354;28;1370;-73
2020/12/27 01:56:35;;;;;;;;;;;21.30;55.20;;;;;;5077437;28;1394;-73
2020/12/27 01:59:04;;;;;;;;;;;21.30;55.30;;;;;;5084421;28;1230;-72
2020/12/27 02:01:30;;;;;;;;;;;21.20;55.20;;;;;;5095337;28;1075;-72
2020/12/27 02:03:56;;;;;;;;;;;21.20;55.20;;;;;;5076989;28;1347;-72
2020/12/27 02:06:21;;;;;;;;;;;21.20;55.30;;;;;;5077406;28;1103;-72
2020/12/27 02:08:50;;;;;;;;;;;21.20;55.30;;;;;;5095480;28;1965;-72
2020/12/27 02:11:17;;;;;;;;;;;21.20;55.30;;;;;;5077387;28;1304;-72
2020/12/27 02:13:52;;;;;;;;;;;21.20;55.30;;;;;;5067883;28;1618;-72
2020/12/27 02:16:21;;;;;;;;;;;21.20;55.30;;;;;;5074303;28;1073;-72
2020/12/27 02:18:48;;;;;;;;;;;21.20;55.30;;;;;;5077375;28;1231;-72
2020/12/27 02:21:14;;;;;;;;;;;21.20;55.40;;;;;;5077112;28;1365;-72
2020/12/27 02:23:39;;;;;;;;;;;21.20;55.30;;;;;;5076820;28;1271;-72
2020/12/27 02:26:05;;;;;;;;;;;21.20;55.30;;;;;;5055535;28;1320;-72
2020/12/27 02:28:31;;;;;;;;;;;21.20;55.30;;;;;;5086225;28;1917;-72
2020/12/27 02:30:56;;;;;;;;;;;21.20;55.30;;;;;;5056562;28;1488;-72
2020/12/27 02:33:22;;;;;;;;;;;21.20;55.20;;;;;;5086071;28;1299;-72
2020/12/27 02:35:48;;;;;;;;;;;21.20;55.20;;;;;;5094778;28;1334;-72
2020/12/27 02:38:13;;;;;;;;;;;21.30;55.20;;;;;;5094830;28;1084;-72
2020/12/27 02:40:40;;;;;;;;;;;21.20;55.20;;;;;;5076678;28;1119;-72
2020/12/27 02:43:06;;;;;;;;;;;21.30;55.20;;;;;;5094625;28;1793;-73
2020/12/27 02:45:31;;;;;;;;;;;21.30;55.20;;;;;;5056172;28;1152;-71
2020/12/27 02:47:57;;;;;;;;;;;21.30;55.10;;;;;;5068138;28;1427;-72
2020/12/27 02:50:22;;;;;;;;;;;21.30;55.10;;;;;;5094492;28;1890;-71
2020/12/27 02:52:48;;;;;;;;;;;21.30;55.20;;;;;;5094506;28;1243;-72
2020/12/27 02:55:13;;;;;;;;;;;21.30;55.10;;;;;;5086908;28;1255;-71
2020/12/27 02:57:38;;;;;;;;;;;21.30;55.10;;;;;;5085735;28;1227;-71
2020/12/27 03:00:04;;;;;;;;;;;21.30;55.10;;;;;;5082191;28;1246;-72
2020/12/27 03:02:30;;;;;;;;;;;21.20;55.10;;;;;;5066103;28;1327;-72
2020/12/27 03:04:55;;;;;;;;;;;21.30;55.20;;;;;;5067658;28;1231;-73
2020/12/27 03:07:21;;;;;;;;;;;21.20;55.10;;;;;;5049095;28;1402;-74
2020/12/27 03:09:46;;;;;;;;;;;21.20;55.10;;;;;;5063613;28;1976;-73
2020/12/27 03:12:12;;;;;;;;;;;21.20;55.20;;;;;;5049425;28;1247;-70
2020/12/27 03:14:37;;;;;;;;;;;21.20;55.20;;;;;;5085783;28;1248;-71
2020/12/27 03:17:03;;;;;;;;;;;21.20;55.20;;;;;;5085029;28;1215;-71
2020/12/27 03:19:28;;;;;;;;;;;21.20;55.20;;;;;;5082504;28;1393;-72
2020/12/27 03:21:53;;;;;;;;;;;21.20;55.20;;;;;;5081667;28;1271;-71
2020/12/27 03:24:19;;;;;;;;;;;21.20;55.20;;;;;;5068138;28;1303;-72
2020/12/27 03:26:44;;;;;;;;;;;21.20;55.20;;;;;;5049732;28;1204;-71
2020/12/27 03:29:13;;;;;;;;;;;21.20;55.30;;;;;;5085292;28;1909;-72
2020/12/27 03:31:38;;;;;;;;;;;21.20;55.30;;;;;;5084963;28;1219;-73
2020/12/27 03:34:03;;;;;;;;;;;21.20;55.30;;;;;;5079723;28;1306;-72
2020/12/27 03:36:29;;;;;;;;;;;21.20;55.30;;;;;;5064790;28;1212;-71
2020/12/27 03:38:54;;;;;;;;;;;21.10;55.30;;;;;;5082842;28;1286;-72
2020/12/27 03:41:20;;;;;;;;;;;21.10;55.30;;;;;;5065176;28;1283;-73
2020/12/27 03:43:45;;;;;;;;;;;21.10;55.40;;;;;;5067697;28;1287;-72
2020/12/27 03:46:12;;;;;;;;;;;21.10;55.40;;;;;;5065478;28;1204;-72
2020/12/27 03:48:37;;;;;;;;;;;21.10;55.40;;;;;;5066899;28;1898;-72
2020/12/27 03:51:03;;;;;;;;;;;21.10;55.40;;;;;;5084239;28;1223;-71
2020/12/27 03:53:28;;;;;;;;;;;21.10;55.40;;;;;;5084927;28;1324;-72
2020/12/27 03:55:54;;;;;;;;;;;21.10;55.40;;;;;;5082097;28;1207;-72
2020/12/27 03:58:19;;;;;;;;;;;21.10;55.50;;;;;;5064596;28;1251;-71
2020/12/27 04:00:45;;;;;;;;;;;21.10;55.40;;;;;;5082293;28;1254;-71
2020/12/27 04:03:10;;;;;;;;;;;21.10;55.50;;;;;;5083298;28;1302;-71
2020/12/27 04:05:36;;;;;;;;;;;21.10;55.50;;;;;;5082730;28;1169;-71
2020/12/27 04:08:01;;;;;;;;;;;21.10;55.50;;;;;;5084917;28;1277;-72
2020/12/27 04:10:26;;;;;;;;;;;21.10;55.50;;;;;;5084305;28;1902;-72
2020/12/27 04:12:52;;;;;;;;;;;21.10;55.50;;;;;;5065093;28;1320;-72
2020/12/27 04:15:17;;;;;;;;;;;21.10;55.50;;;;;;5082097;28;1192;-70
2020/12/27 04:17:43;;;;;;;;;;;21.10;55.40;;;;;;5066726;28;1193;-71
2020/12/27 04:20:08;;;;;;;;;;;21.20;55.30;;;;;;5083653;28;1255;-71
2020/12/27 04:22:37;;;;;;;;;;;21.20;55.20;;;;;;5066619;28;1281;-72
2020/12/27 04:25:02;;;;;;;;;;;21.30;55.10;;;;;;5065948;28;1365;-72
2020/12/27 04:27:28;;;;;;;;;;;21.40;54.90;;;;;;5066045;28;1240;-71
2020/12/27 04:29:53;;;;;;;;;;;21.50;54.80;;;;;;5071851;28;1914;-71
2020/12/27 04:32:19;;;;;;;;;;;21.60;54.60;;;;;;5092963;28;1302;-72
2020/12/27 04:34:44;;;;;;;;;;;21.60;54.40;;;;;;5092886;28;1291;-72
2020/12/27 04:37:09;;;;;;;;;;;21.70;54.30;;;;;;5067467;28;1259;-72
2020/12/27 04:39:35;;;;;;;;;;;21.80;54.10;;;;;;5083210;28;1240;-72
2020/12/27 04:42:01;;;;;;;;;;;21.90;53.90;;;;;;5066826;28;1236;-73
2020/12/27 04:44:27;;;;;;;;;;;21.90;53.80;;;;;;5048041;28;1392;-71
2020/12/27 04:46:53;;;;;;;;;;;22.00;53.70;;;;;;5080223;28;1243;-71
2020/12/27 04:49:18;;;;;;;;;;;22.00;53.50;;;;;;5065918;28;1898;-71
2020/12/27 04:51:44;;;;;;;;;;;22.00;53.40;;;;;;5065334;28;1299;-71
2020/12/27 04:54:09;;;;;;;;;;;22.10;53.30;;;;;;5065755;28;1315;-72
2020/12/27 04:56:35;;;;;;;;;;;22.20;53.20;;;;;;5063151;28;1224;-72
2020/12/27 04:59:00;;;;;;;;;;;22.20;53.20;;;;;;5064571;28;1172;-71
2020/12/27 05:01:26;;;;;;;;;;;22.20;53.10;;;;;;5083223;28;1283;-72
2020/12/27 05:03:54;;;;;;;;;;;22.20;53.00;;;;;;5082960;28;1284;-72
2020/12/27 05:06:20;;;;;;;;;;;22.30;53.00;;;;;;5066868;28;1298;-72
2020/12/27 05:08:45;;;;;;;;;;;22.30;52.90;;;;;;5065794;28;1914;-73
2020/12/27 05:11:14;;;;;;;;;;;22.30;52.90;;;;;;5064233;28;1342;-71
2020/12/27 05:13:42;;;;;;;;;;;22.30;52.80;;;;;;5083118;28;1369;-71
2020/12/27 05:16:08;;;;;;;;;;;22.40;52.80;;;;;;5066436;28;1307;-73
2020/12/27 05:18:33;;;;;;;;;;;22.40;52.80;;;;;;5065323;28;1530;-71
2020/12/27 05:20:59;;;;;;;;;;;22.40;52.70;;;;;;5085305;28;1235;-72
2020/12/27 05:23:25;;;;;;;;;;;22.40;52.70;;;;;;5091315;22;3536;-67
2020/12/27 05:25:50;;;;;;;;;;;22.50;52.70;;;;;;5112823;28;1536;-66
2020/12/27 05:28:16;;;;;;;;;;;22.50;52.60;;;;;;5105444;28;1906;-66
2020/12/27 05:30:44;;;;;;;;;;;22.50;52.60;;;;;;5114349;28;1222;-65
2020/12/27 05:33:10;;;;;;;;;;;22.50;52.60;;;;;;5116453;28;1216;-66
2020/12/27 05:35:36;;;;;;;;;;;22.50;52.50;;;;;;5098155;28;1539;-66
2020/12/27 05:38:01;;;;;;;;;;;22.50;52.50;;;;;;5116444;28;1291;-65
2020/12/27 05:40:31;;;;;;;;;;;22.50;52.50;;;;;;5116613;28;1651;-66
2020/12/27 05:42:57;;;;;;;;;;;22.50;52.50;;;;;;5098206;28;1668;-66
2020/12/27 05:45:22;;;;;;;;;;;22.50;52.40;;;;;;5116245;28;1369;-66
2020/12/27 05:47:48;;;;;;;;;;;22.60;52.50;;;;;;5116270;28;1678;-66
2020/12/27 05:50:14;;;;;;;;;;;22.60;52.40;;;;;;5116140;28;1943;-66
2020/12/27 05:52:43;;;;;;;;;;;22.60;52.40;;;;;;5098102;28;1679;-66
2020/12/27 05:55:09;;;;;;;;;;;22.60;52.40;;;;;;5116099;28;1672;-66
2020/12/27 05:57:34;;;;;;;;;;;22.60;52.40;;;;;;5090563;28;1552;-66
2020/12/27 06:00:02;;;;;;;;;;;22.60;52.40;;;;;;5112191;28;1377;-66
2020/12/27 06:02:48;;;;;;;;;;;22.60;52.50;;;;;;5116428;28;1477;-66
2020/12/27 06:05:16;;;;;;;;;;;22.60;52.50;;;;;;5114853;28;1419;-66
2020/12/27 06:07:42;;;;;;;;;;;22.60;52.50;;;;;;5097477;28;1595;-66
2020/12/27 06:10:15;;;;;;;;;;;22.60;52.50;;;;;;5097820;28;1961;-65
2020/12/27 06:12:43;;;;;;;;;;;22.50;52.50;;;;;;5115709;28;1710;-66
2020/12/27 06:15:09;;;;;;;;;;;22.50;52.50;;;;;;5115734;28;1673;-66
2020/12/27 06:17:53;;;;;;;;;;;22.50;52.60;;;;;;5115662;28;1382;-66
2020/12/27 06:20:18;;;;;;;;;;;22.50;52.60;;;;;;5115684;28;1715;-66
2020/12/27 06:22:48;;;;;;;;;;;22.50;52.70;;;;;;5115559;28;1664;-65
2020/12/27 06:25:13;;;;;;;;;;;22.50;52.70;;;;;;5097274;28;1458;-65
2020/12/27 06:27:39;;;;;;;;;;;22.40;52.80;;;;;;5097233;28;1467;-66
2020/12/27 06:30:05;;;;;;;;;;;22.40;52.80;;;;;;5097401;28;1898;-66
2020/12/27 06:32:32;;;;;;;;;;;22.40;52.80;;;;;;5096943;28;1704;-66
2020/12/27 06:35:01;;;;;;;;;;;22.40;52.90;;;;;;5096989;28;1423;-66
2020/12/27 06:37:26;;;;;;;;;;;22.40;52.90;;;;;;5097381;28;1710;-66
2020/12/27 06:39:52;;;;;;;;;;;22.40;53.00;;;;;;5096999;28;1423;-66
2020/12/27 06:42:18;;;;;;;;;;;22.40;53.00;;;;;;5096913;28;1368;-66
2020/12/27 06:44:44;;;;;;;;;;;22.30;53.00;;;;;;5115144;28;1688;-66
2020/12/27 06:47:10;;;;;;;;;;;22.30;53.10;;;;;;5096715;28;1223;-66
2020/12/27 06:49:35;;;;;;;;;;;22.30;53.10;;;;;;5097076;28;1898;-66
2020/12/27 06:52:19;;;;;;;;;;;22.30;53.10;;;;;;5114975;28;1487;-66
2020/12/27 06:54:47;;;;;;;;;;;22.20;53.10;;;;;;5115004;28;1456;-66
2020/12/27 06:57:32;;;;;;;;;;;22.30;53.20;;;;;;5110399;28;1286;-65
2020/12/27 07:00:12;;;;;;;;;;;22.20;53.20;;;;;;5110829;28;1401;-66
2020/12/27 07:02:37;;;;;;;;;;;22.20;53.20;;;;;;5096598;28;1776;-66
2020/12/27 07:05:03;;;;;;;;;;;22.20;53.30;;;;;;5096485;28;1762;-66
2020/12/27 07:07:44;;;;;;;;;;;22.20;53.30;;;;;;5096606;28;1378;-66
2020/12/27 07:10:09;;;;;;;;;;;22.10;53.30;;;;;;5096230;28;1894;-66
2020/12/27 07:12:35;;;;;;;;;;;22.20;53.40;;;;;;5114711;28;1455;-66
2020/12/27 07:15:00;;;;;;;;;;;22.10;53.40;;;;;;5093511;28;1845;-66
2020/12/27 07:17:26;;;;;;;;;;;22.10;53.40;;;;;;5095712;28;2147;-67
2020/12/27 07:19:51;;;;;;;;;;;22.10;53.50;;;;;;5094561;28;1707;-66
2020/12/27 07:22:17;;;;;;;;;;;22.10;53.50;;;;;;5096184;28;1683;-66
2020/12/27 07:24:42;;;;;;;;;;;22.00;53.50;;;;;;5095474;28;1726;-66
2020/12/27 07:27:09;;;;;;;;;;;22.10;53.60;;;;;;5113903;28;1768;-66
2020/12/27 07:29:35;;;;;;;;;;;22.00;53.50;;;;;;5114135;28;1969;-68
2020/12/27 07:32:00;;;;;;;;;;;22.00;53.60;;;;;;5113874;28;1371;-66
2020/12/27 07:34:26;;;;;;;;;;;22.00;53.60;;;;;;5095597;28;1453;-66
2020/12/27 07:36:55;;;;;;;;;;;22.00;53.70;;;;;;5113997;28;1702;-65
2020/12/27 07:39:41;;;;;;;;;;;22.00;53.70;;;;;;5078562;28;1584;-66
2020/12/27 07:42:06;;;;;;;;;;;22.00;53.70;;;;;;5112842;28;1419;-67
2020/12/27 07:44:32;;;;;;;;;;;21.90;53.70;;;;;;5112848;28;1278;-66
2020/12/27 07:46:57;;;;;;;;;;;21.90;53.80;;;;;;5113665;28;1426;-66
2020/12/27 07:49:23;;;;;;;;;;;21.90;53.80;;;;;;5095200;28;1902;-66
2020/12/27 07:51:49;;;;;;;;;;;21.90;53.80;;;;;;5113625;28;1487;-66
2020/12/27 07:54:14;;;;;;;;;;;21.90;53.90;;;;;;5095266;28;1422;-67
2020/12/27 07:56:41;;;;;;;;;;;21.90;54.50;;;;;;5095317;28;1397;-66
2020/12/27 07:59:07;;;;;;;;;;;21.80;53.90;;;;;;5083923;28;1334;-66
2020/12/27 08:01:33;;;;;;;;;;;21.80;53.90;;;;;;5094963;28;1392;-66
2020/12/27 08:03:59;;;;;;;;;;;21.80;54.50;;;;;;5093129;28;1617;-66
2020/12/27 08:06:26;;;;;;;;;;;21.80;54.00;;;;;;5091033;28;1994;-66
2020/12/27 08:09:00;;;;;;;;;;;21.80;54.00;;;;;;5100269;28;1957;-65
2020/12/27 08:11:26;;;;;;;;;;;21.80;54.00;;;;;;5108726;28;1468;-66
2020/12/27 08:13:52;;;;;;;;;;;21.80;54.00;;;;;;5090300;28;1501;-66
2020/12/27 08:16:18;;;;;;;;;;;21.90;54.00;;;;;;5111407;28;1392;-65
2020/12/27 08:18:43;;;;;;;;;;;21.80;53.90;;;;;;5112844;28;1675;-66
2020/12/27 08:21:09;;;;;;;;;;;21.90;53.90;;;;;;5113316;28;1718;-66
2020/12/27 08:23:34;;;;;;;;;;;21.90;53.80;;;;;;5113080;28;1412;-65
2020/12/27 08:26:00;;;;;;;;;;;22.00;53.70;;;;;;5113279;28;1743;-65
2020/12/27 08:28:26;;;;;;;;;;;22.10;53.60;;;;;;5113249;28;1910;-65
2020/12/27 08:30:51;;;;;;;;;;;22.10;53.50;;;;;;5095167;28;1588;-66
2020/12/27 08:33:17;;;;;;;;;;;22.10;53.40;;;;;;5113266;28;1345;-65
2020/12/27 08:35:45;;;;;;;;;;;22.20;53.40;;;;;;5113208;28;1725;-65
2020/12/27 08:38:13;;;;;;;;;;;22.20;53.20;;;;;;5094986;28;1437;-65
2020/12/27 08:40:39;;;;;;;;;;;22.20;53.10;;;;;;5113230;28;1517;-65
2020/12/27 08:43:05;;;;;;;;;;;22.30;53.00;;;;;;5094786;28;1707;-66
2020/12/27 08:45:31;;;;;;;;;;;22.30;53.00;;;;;;5094787;28;1748;-66
2020/12/27 08:47:58;;;;;;;;;;;22.30;52.90;;;;;;5094876;28;1728;-66
2020/12/27 08:50:24;;;;;;;;;;;22.40;52.90;;;;;;5112918;28;1909;-66
2020/12/27 08:52:50;;;;;;;;;;;22.40;52.80;;;;;;5077728;28;1231;-66
2020/12/27 08:55:15;;;;;;;;;;;22.40;52.80;;;;;;5097066;28;1631;-66
2020/12/27 08:57:44;;;;;;;;;;;22.40;52.80;;;;;;5090509;28;1614;-65
2020/12/27 09:00:10;;;;;;;;;;;22.40;52.80;;;;;;5096122;28;1681;-65
2020/12/27 09:02:36;;;;;;;;;;;22.40;52.80;;;;;;5098842;28;1636;-66
2020/12/27 09:05:05;;;;;;;;;;;22.40;52.80;;;;;;5098475;28;1416;-65
2020/12/27 09:07:34;;;;;;;;;;;22.40;52.80;;;;;;5116957;28;1382;-66
2020/12/27 09:10:06;;;;;;;;;;;22.40;52.80;;;;;;5116855;28;1973;-65
2020/12/27 09:12:31;;;;;;;;;;;22.40;52.80;;;;;;5117434;28;1180;-66
2020/12/27 09:15:00;;;;;;;;;;;22.40;52.80;;;;;;5116532;28;1580;-66
2020/12/27 09:17:26;;;;;;;;;;;22.40;52.90;;;;;;5116660;28;1395;-66
2020/12/27 09:19:52;;;;;;;;;;;22.30;52.90;;;;;;5098563;28;1630;-66
2020/12/27 09:22:18;;;;;;;;;;;22.30;52.90;;;;;;5098703;28;1245;-66
2020/12/27 09:24:43;;;;;;;;;;;22.30;52.90;;;;;;5098096;28;1677;-66
2020/12/27 09:27:09;;;;;;;;;;;22.30;53.00;;;;;;5116540;28;1700;-66
2020/12/27 09:29:35;;;;;;;;;;;22.30;53.00;;;;;;5116431;28;1980;-66
2020/12/27 09:32:13;;;;;;;;;;;22.30;53.00;;;;;;5116574;28;1374;-66
2020/12/27 09:34:39;;;;;;;;;;;22.20;53.00;;;;;;5116364;28;1690;-66
2020/12/27 09:37:14;;;;;;;;;;;22.30;53.10;;;;;;5116407;28;1742;-66
2020/12/27 09:39:39;;;;;;;;;;;22.20;53.10;;;;;;5098251;28;1484;-67
2020/12/27 09:42:05;;;;;;;;;;;22.20;53.10;;;;;;5116432;28;1379;-66
2020/12/27 09:44:30;;;;;;;;;;;22.20;53.10;;;;;;5115988;28;1788;-67
2020/12/27 09:46:57;;;;;;;;;;;22.20;53.10;;;;;;5116031;28;1346;-65
2020/12/27 09:49:26;;;;;;;;;;;22.20;53.20;;;;;;5098136;28;1922;-65
2020/12/27 09:52:15;;;;;;;;;;;22.20;53.20;;;;;;5116228;28;1362;-65
2020/12/27 09:54:43;;;;;;;;;;;22.20;53.20;;;;;;5115803;28;1999;-65
2020/12/27 09:57:12;;;;;;;;;;;22.20;53.20;;;;;;5093847;28;1651;-65
2020/12/27 09:59:38;;;;;;;;;;;22.20;53.20;;;;;;5108936;28;1365;-65
2020/12/27 10:02:04;;;;;;;;;;;22.20;53.20;;;;;;5097042;28;1831;-66
2020/12/27 10:04:29;;;;;;;;;;;22.20;53.10;;;;;;5097372;28;1447;-65
2020/12/27 10:06:55;;;;;;;;;;;22.30;53.10;;;;;;5102524;28;2041;-66
2020/12/27 10:09:20;;;;;;;;;;;22.30;53.00;;;;;;5114313;28;1909;-65
2020/12/27 10:11:46;;;;;;;;;;;22.30;53.00;;;;;;5115883;28;1441;-65
2020/12/27 10:14:11;;;;;;;;;;;22.30;52.90;;;;;;5112218;28;1558;-66
2020/12/27 10:16:36;;;;;;;;;;;22.40;52.90;;;;;;5115486;28;1520;-66
2020/12/27 10:19:02;;;;;;;;;;;22.30;52.80;;;;;;5115591;28;1394;-65
2020/12/27 10:21:27;;;;;;;;;;;22.40;52.90;;;;;;5115661;28;1481;-66
2020/12/27 10:23:53;;;;;;;;;;;22.40;52.80;;;;;;5115060;28;1355;-65
2020/12/27 10:26:18;;;;;;;;;;;22.40;52.80;;;;;;5115383;28;1376;-66
2020/12/27 10:28:44;;;;;;;;;;;22.40;52.80;;;;;;5115400;28;1909;-65
2020/12/27 10:31:09;;;;;;;;;;;22.40;52.80;;;;;;5115401;28;1442;-65
2020/12/27 10:33:35;;;;;;;;;;;22.40;52.80;;;;;;5115128;28;1673;-66
2020/12/27 10:36:01;;;;;;;;;;;22.40;52.80;;;;;;5115196;28;1805;-65
2020/12/27 10:38:26;;;;;;;;;;;22.40;52.80;;;;;;5115236;28;1398;-65
2020/12/27 10:40:51;;;;;;;;;;;22.40;52.80;;;;;;5115305;28;1385;-65
2020/12/27 10:43:18;;;;;;;;;;;22.40;52.80;;;;;;5115207;28;1681;-65
2020/12/27 10:45:44;;;;;;;;;;;22.40;52.80;;;;;;5114992;28;1431;-65
2020/12/27 10:48:10;;;;;;;;;;;22.40;52.80;;;;;;5096624;28;1615;-65
2020/12/27 10:50:38;;;;;;;;;;;22.40;52.80;;;;;;5115048;28;1898;-65
2020/12/27 10:53:04;;;;;;;;;;;22.40;52.80;;;;;;5114820;28;1660;-66
2020/12/27 10:55:29;;;;;;;;;;;22.40;52.90;;;;;;5114797;28;1743;-65
2020/12/27 10:57:55;;;;;;;;;;;22.40;52.80;;;;;;5104349;28;1400;-65
2020/12/27 11:00:20;;;;;;;;;;;22.40;52.80;;;;;;5114188;28;1458;-65
2020/12/27 11:02:46;;;;;;;;;;;22.40;52.80;;;;;;5114768;28;1681;-65
2020/12/27 11:05:11;;;;;;;;;;;22.40;52.80;;;;;;5114498;28;1444;-65
2020/12/27 11:07:37;;;;;;;;;;;22.40;52.80;;;;;;5114590;28;1659;-66
2020/12/27 11:10:02;;;;;;;;;;;22.30;52.80;;;;;;5114676;28;1905;-66
2020/12/27 11:12:28;;;;;;;;;;;22.30;52.80;;;;;;5114759;28;1744;-66
2020/12/27 11:14:53;;;;;;;;;;;22.30;52.80;;;;;;5114170;28;1484;-66
2020/12/27 11:17:19;;;;;;;;;;;22.40;52.90;;;;;;5114106;28;1348;-65
2020/12/27 11:19:44;;;;;;;;;;;22.30;52.80;;;;;;5113824;28;1723;-66
2020/12/27 11:22:10;;;;;;;;;;;22.30;52.90;;;;;;5114410;28;1385;-65
2020/12/27 11:24:35;;;;;;;;;;;22.30;52.90;;;;;;5114566;28;1587;-64
2020/12/27 11:27:01;;;;;;;;;;;22.30;52.90;;;;;;5114032;28;1462;-64
2020/12/27 11:29:26;;;;;;;;;;;22.30;52.90;;;;;;5114050;28;1967;-64
2020/12/27 11:31:53;;;;;;;;;;;22.30;52.90;;;;;;5114161;28;1330;-64
2020/12/27 11:34:18;;;;;;;;;;;22.30;52.90;;;;;;5096060;28;1379;-64
2020/12/27 11:36:46;;;;;;;;;;;22.40;52.90;;;;;;5113647;28;1292;-65
2020/12/27 11:39:12;;;;;;;;;;;22.40;52.90;;;;;;5113956;28;1612;-64
2020/12/27 11:41:37;;;;;;;;;;;22.30;52.80;;;;;;5114143;28;1325;-64
2020/12/27 11:44:02;;;;;;;;;;;22.30;53.40;;;;;;5113581;28;1286;-65
2020/12/27 11:46:28;;;;;;;;;;;22.40;52.90;;;;;;5113572;28;1321;-64
2020/12/27 11:48:53;;;;;;;;;;;22.40;52.80;;;;;;5113761;28;1897;-65
2020/12/27 11:51:19;;;;;;;;;;;22.40;52.80;;;;;;5113582;28;1212;-65
2020/12/27 11:53:44;;;;;;;;;;;22.40;52.80;;;;;;5108585;28;1997;-65
2020/12/27 11:56:15;;;;;;;;;;;22.40;52.80;;;;;;5113447;28;1327;-65
2020/12/27 11:58:41;;;;;;;;;;;22.40;52.80;;;;;;5102068;28;1341;-65
2020/12/27 12:01:09;;;;;;;;;;;22.40;52.80;;;;;;5113963;28;1283;-65
2020/12/27 12:03:35;;;;;;;;;;;22.40;52.80;;;;;;5113198;28;1324;-65
2020/12/27 12:06:00;;;;;;;;;;;22.40;52.80;;;;;;5113115;28;1188;-65
2020/12/27 12:08:26;;;;;;;;;;;22.30;52.80;;;;;;5109319;28;1310;-64
2020/12/27 12:10:52;;;;;;;;;;;22.30;52.80;;;;;;5104192;28;1905;-65
2020/12/27 12:13:18;;;;;;;;;;;22.30;52.80;;;;;;5103212;28;1376;-65
2020/12/27 12:15:43;;;;;;;;;;;22.30;52.90;;;;;;5105425;28;1238;-64
2020/12/27 12:18:09;;;;;;;;;;;22.30;52.90;;;;;;5113114;28;1275;-65
2020/12/27 12:20:45;;;;;;;;;;;22.30;53.00;;;;;;5110193;28;1875;-65
2020/12/27 12:23:14;;;;;;;;;;;22.30;53.00;;;;;;5111423;28;1392;-64
2020/12/27 12:25:40;;;;;;;;;;;22.20;53.00;;;;;;5112176;28;1394;-65
2020/12/27 12:28:05;;;;;;;;;;;22.20;53.00;;;;;;5101374;28;1316;-64
2020/12/27 12:30:32;;;;;;;;;;;22.20;53.00;;;;;;5093604;28;1909;-64
2020/12/27 12:32:57;;;;;;;;;;;22.20;53.10;;;;;;5111982;28;1699;-64
2020/12/27 12:35:23;;;;;;;;;;;22.20;53.10;;;;;;5112080;28;1264;-64
2020/12/27 12:37:48;;;;;;;;;;;22.20;53.20;;;;;;5111988;28;1366;-65
2020/12/27 12:40:14;;;;;;;;;;;22.20;53.20;;;;;;5112295;28;1106;-64
2020/12/27 12:42:39;;;;;;;;;;;22.20;53.20;;;;;;5093788;28;1324;-64
2020/12/27 12:45:05;;;;;;;;;;;22.20;53.20;;;;;;5093592;28;1298;-64
2020/12/27 12:47:31;;;;;;;;;;;22.10;53.20;;;;;;5093476;28;1246;-64
2020/12/27 12:49:56;;;;;;;;;;;22.10;53.30;;;;;;5111884;28;1894;-64
2020/12/27 12:52:22;;;;;;;;;;;22.10;53.30;;;;;;5093749;28;1335;-65
2020/12/27 12:54:47;;;;;;;;;;;22.10;53.30;;;;;;5111744;28;1249;-65
2020/12/27 12:57:12;;;;;;;;;;;22.10;53.40;;;;;;5107331;28;1315;-64
2020/12/27 12:59:38;;;;;;;;;;;22.10;53.40;;;;;;5105895;28;1242;-64
2020/12/27 13:02:03;;;;;;;;;;;22.10;53.40;;;;;;5111741;28;1286;-65
2020/12/27 13:04:29;;;;;;;;;;;22.00;53.40;;;;;;5111590;28;1620;-65
2020/12/27 13:06:54;;;;;;;;;;;22.00;53.40;;;;;;5111959;28;1311;-64
2020/12/27 13:09:20;;;;;;;;;;;22.00;53.40;;;;;;5109874;28;1953;-64
2020/12/27 13:11:46;;;;;;;;;;;22.00;53.50;;;;;;5112168;28;1308;-65
2020/12/27 13:14:11;;;;;;;;;;;22.00;53.50;;;;;;5109348;28;1732;-65
2020/12/27 13:16:43;;;;;;;;;;;21.90;53.50;;;;;;5102216;28;1286;-65
2020/12/27 13:19:08;;;;;;;;;;;21.90;53.50;;;;;;5111351;28;1254;-65
2020/12/27 13:21:33;;;;;;;;;;;21.90;53.60;;;;;;5093372;28;1258;-65
2020/12/27 13:23:59;;;;;;;;;;;21.90;53.60;;;;;;5111386;28;1425;-65
2020/12/27 13:26:25;;;;;;;;;;;21.90;53.70;;;;;;5111450;28;1274;-65
2020/12/27 13:28:50;;;;;;;;;;;21.90;53.70;;;;;;5111672;28;1972;-64
2020/12/27 13:31:16;;;;;;;;;;;21.90;53.70;;;;;;5111395;28;1340;-65
2020/12/27 13:33:41;;;;;;;;;;;21.80;53.70;;;;;;5111378;28;1535;-65
2020/12/27 13:36:10;;;;;;;;;;;21.80;53.70;;;;;;5111447;28;1055;-65
2020/12/27 13:38:35;;;;;;;;;;;21.80;53.80;;;;;;5111537;28;1311;-65
2020/12/27 13:41:01;;;;;;;;;;;21.80;53.80;;;;;;5111592;28;1059;-65
2020/12/27 13:43:26;;;;;;;;;;;21.80;53.80;;;;;;5096668;28;1372;-65
2020/12/27 13:45:52;;;;;;;;;;;21.80;53.80;;;;;;5115225;28;1285;-66
2020/12/27 13:48:17;;;;;;;;;;;21.80;53.80;;;;;;5115206;28;1400;-65
2020/12/27 13:50:43;;;;;;;;;;;21.80;53.90;;;;;;5114835;28;1953;-64
2020/12/27 13:53:08;;;;;;;;;;;21.80;53.90;;;;;;5114869;28;1356;-65
2020/12/27 13:55:34;;;;;;;;;;;21.70;53.90;;;;;;5114831;28;1242;-65
2020/12/27 13:57:59;;;;;;;;;;;21.70;53.90;;;;;;5104322;28;1327;-65
2020/12/27 14:00:25;;;;;;;;;;;21.70;53.90;;;;;;5113024;28;1566;-65
2020/12/27 14:02:50;;;;;;;;;;;21.70;54.00;;;;;;5114925;28;1271;-65
2020/12/27 14:05:15;;;;;;;;;;;21.70;54.00;;;;;;5105453;28;1317;-65
2020/12/27 14:07:41;;;;;;;;;;;21.70;54.00;;;;;;5103010;28;1215;-65
2020/12/27 14:10:06;;;;;;;;;;;21.70;54.00;;;;;;5103548;28;2220;-65
2020/12/27 14:12:32;;;;;;;;;;;21.70;54.10;;;;;;5103034;28;1171;-65
2020/12/27 14:14:57;;;;;;;;;;;21.70;54.10;;;;;;5105986;28;1381;-65
2020/12/27 14:17:23;;;;;;;;;;;21.70;54.10;;;;;;5103186;28;1140;-65
2020/12/27 14:19:48;;;;;;;;;;;21.70;54.20;;;;;;5106611;28;1321;-66
2020/12/27 14:22:14;;;;;;;;;;;21.60;54.20;;;;;;5104811;28;1140;-65
2020/12/27 14:24:39;;;;;;;;;;;21.70;54.20;;;;;;5107412;28;1338;-65